createdAt,value
2023-05-12T00:00:03.119Z,101267.06
2023-05-12T00:02:04.793Z,101268.75
2023-05-12T00:04:07.036Z,101259.47
2023-05-12T00:06:08.776Z,101257.31
2023-05-12T00:08:10.336Z,101268.09
2023-05-12T00:10:12.267Z,101261.53
2023-05-12T00:12:13.865Z,101266.81
2023-05-12T00:14:15.853Z,101265.13
2023-05-12T00:16:18.775Z,101260.91
2023-05-12T00:18:20.512Z,101244.25
2023-05-12T00:20:22.606Z,101271.09
2023-05-12T00:22:24.303Z,101258.56
2023-05-12T00:24:25.974Z,101262.00
2023-05-12T00:26:27.638Z,101269.16
2023-05-12T00:28:29.197Z,101267.06
2023-05-12T00:30:30.775Z,101261.91
2023-05-12T00:32:32.287Z,101256.41
2023-05-12T00:34:33.841Z,101265.50
2023-05-12T00:36:35.277Z,101258.09
2023-05-12T00:38:37.389Z,101261.91
2023-05-12T00:40:38.941Z,101265.50
2023-05-12T00:42:40.458Z,101261.09
2023-05-12T00:44:41.946Z,101268.47
2023-05-12T00:46:43.376Z,101266.59
2023-05-12T00:48:45.405Z,101260.00
2023-05-12T00:50:46.953Z,101258.09
2023-05-12T00:52:48.906Z,101261.44
2023-05-12T00:54:50.630Z,101258.69
2023-05-12T00:56:52.084Z,101256.31
2023-05-12T00:58:53.687Z,101258.25
2023-05-12T01:00:55.509Z,101255.50
2023-05-12T01:03:00.341Z,101260.16
2023-05-12T01:05:02.554Z,101256.78
2023-05-12T01:07:07.554Z,101255.94
2023-05-12T01:09:09.409Z,101251.50
2023-05-12T01:11:10.830Z,101255.13
2023-05-12T01:13:12.617Z,101261.44
2023-05-12T01:15:14.290Z,101258.69
2023-05-12T01:17:19.027Z,101257.41
2023-05-12T01:19:29.677Z,101258.25
2023-05-12T01:21:31.946Z,101256.94
2023-05-12T01:23:39.774Z,101261.59
2023-05-12T01:25:41.550Z,101246.44
2023-05-12T01:27:43.109Z,101255.25
2023-05-12T01:29:46.466Z,101257.19
2023-05-12T01:31:49.118Z,101260.16
2023-05-12T01:33:50.684Z,101258.25
2023-05-12T01:35:52.158Z,101261.81
2023-05-12T01:37:53.574Z,101262.69
2023-05-12T01:39:55.000Z,101264.34
2023-05-12T01:41:56.503Z,101266.88
2023-05-12T01:43:57.936Z,101260.31
2023-05-12T01:45:59.456Z,101259.25
2023-05-12T01:48:01.020Z,101260.91
2023-05-12T01:50:02.531Z,101259.47
2023-05-12T01:52:04.140Z,101258.63
2023-05-12T01:54:05.679Z,101255.84
2023-05-12T01:56:07.271Z,101257.19
2023-05-12T01:58:08.929Z,101254.44
2023-05-12T02:00:10.984Z,101256.94
2023-05-12T02:02:12.652Z,101259.47
2023-05-12T02:04:14.266Z,101257.31
2023-05-12T02:06:15.910Z,101252.44
2023-05-12T02:08:17.454Z,101263.47
2023-05-12T02:10:19.072Z,101260.47
2023-05-12T02:12:20.786Z,101256.03
2023-05-12T02:14:22.292Z,101252.44
2023-05-12T02:16:24.136Z,101254.34
2023-05-12T02:18:25.647Z,101263.66
2023-05-12T02:20:29.282Z,101253.75
2023-05-12T02:22:30.850Z,101258.38
2023-05-12T02:24:32.243Z,101257.56
2023-05-12T02:26:33.693Z,101259.25
2023-05-12T02:28:35.147Z,101252.44
2023-05-12T02:30:37.000Z,101254.75
2023-05-12T02:32:38.484Z,101256.41
2023-05-12T02:34:40.078Z,101253.41
2023-05-12T02:36:41.673Z,101244.56
2023-05-12T02:38:43.120Z,101247.31
2023-05-12T02:40:46.078Z,101247.31
2023-05-12T02:42:47.613Z,101251.13
2023-05-12T02:44:49.130Z,101247.75
2023-05-12T02:46:50.701Z,101229.00
2023-05-12T02:48:52.112Z,101244.19
2023-05-12T02:50:53.550Z,101250.06
2023-05-12T02:52:54.989Z,101252.59
2023-05-12T02:54:56.971Z,101250.66
2023-05-12T02:56:59.810Z,101250.66
2023-05-12T02:59:01.470Z,101253.19
2023-05-12T03:01:09.823Z,101252.34
2023-05-12T03:03:13.015Z,101254.28
2023-05-12T03:05:14.574Z,101249.84
2023-05-12T03:07:16.182Z,101251.75
2023-05-12T03:09:17.596Z,101243.72
2023-05-12T03:11:19.067Z,101249.47
2023-05-12T03:13:20.547Z,101249.22
2023-05-12T03:15:22.232Z,101253.66
2023-05-12T03:17:23.960Z,101246.00
2023-05-12T03:19:25.605Z,101245.78
2023-05-12T03:21:28.536Z,101248.31
2023-05-12T03:23:30.770Z,101244.69
2023-05-12T03:25:32.354Z,101244.69
2023-05-12T03:27:33.919Z,101247.44
2023-05-12T03:29:35.385Z,101244.09
2023-05-12T03:31:36.979Z,101251.53
2023-05-12T03:33:38.371Z,101246.84
2023-05-12T03:35:39.950Z,101247.06
2023-05-12T03:37:41.472Z,101247.91
2023-05-12T03:39:43.173Z,101242.16
2023-05-12T03:41:44.671Z,101246.63
2023-05-12T03:43:46.562Z,101243.41
2023-05-12T03:45:48.041Z,101246.97
2023-05-12T03:47:49.719Z,101245.91
2023-05-12T03:49:51.328Z,101246.97
2023-05-12T03:51:52.914Z,101245.31
2023-05-12T03:53:54.305Z,101249.97
2023-05-12T03:55:55.726Z,101249.97
2023-05-12T03:57:57.215Z,101249.97
2023-05-12T03:59:58.803Z,101253.81
2023-05-12T04:02:00.536Z,101249.97
2023-05-12T04:04:02.079Z,101253.81
2023-05-12T04:06:04.233Z,101249.13
2023-05-12T04:08:05.816Z,101254.19
2023-05-12T04:10:07.885Z,101250.59
2023-05-12T04:12:09.985Z,101248.69
2023-05-12T04:14:11.457Z,101252.25
2023-05-12T04:16:13.022Z,101256.34
2023-05-12T04:18:14.679Z,101251.06
2023-05-12T04:20:16.221Z,101259.09
2023-05-12T04:22:17.758Z,101254.66
2023-05-12T04:24:19.391Z,101252.97
2023-05-12T04:26:22.054Z,101252.97
2023-05-12T04:28:23.592Z,101249.13
2023-05-12T04:30:25.278Z,101256.94
2023-05-12T04:32:26.829Z,101253.97
2023-05-12T04:34:28.414Z,101252.91
2023-05-12T04:36:29.915Z,101248.44
2023-05-12T04:38:31.520Z,101259.47
2023-05-12T04:40:34.892Z,101255.25
2023-05-12T04:42:36.663Z,101266.28
2023-05-12T04:44:38.167Z,101260.75
2023-05-12T04:46:39.617Z,101266.28
2023-05-12T04:48:43.174Z,101267.13
2023-05-12T04:50:44.647Z,101265.44
2023-05-12T04:52:46.138Z,101265.22
2023-05-12T04:54:47.617Z,101262.22
2023-05-12T04:56:49.182Z,101267.72
2023-05-12T04:58:50.867Z,101266.69
2023-05-12T05:00:53.000Z,101270.50
2023-05-12T05:02:54.586Z,101271.31
2023-05-12T05:04:56.236Z,101270.72
2023-05-12T05:06:57.693Z,101271.78
2023-05-12T05:08:59.149Z,101281.16
2023-05-12T05:11:00.816Z,101283.66
2023-05-12T05:13:02.228Z,101284.72
2023-05-12T05:15:04.085Z,101285.56
2023-05-12T05:17:07.829Z,101279.00
2023-05-12T05:19:20.017Z,101281.28
2023-05-12T05:21:26.923Z,101292.31
2023-05-12T05:23:28.376Z,101292.31
2023-05-12T05:25:29.839Z,101286.78
2023-05-12T05:27:31.328Z,101286.78
2023-05-12T05:29:32.960Z,101294.22
2023-05-12T05:31:34.498Z,101287.84
2023-05-12T05:33:36.109Z,101293.59
2023-05-12T05:35:37.700Z,101287.25
2023-05-12T05:37:39.118Z,101290.00
2023-05-12T05:39:40.494Z,101294.69
2023-05-12T05:41:42.074Z,101296.34
2023-05-12T05:43:43.751Z,101292.31
2023-05-12T05:45:45.339Z,101294.84
2023-05-12T05:47:49.461Z,101288.50
2023-05-12T05:49:50.943Z,101294.00
2023-05-12T05:51:52.509Z,101294.00
2023-05-12T05:53:53.951Z,101289.56
2023-05-12T05:55:55.543Z,101293.38
2023-05-12T05:57:57.000Z,101295.28
2023-05-12T05:59:58.729Z,101296.34
2023-05-12T06:02:00.389Z,101293.59
2023-05-12T06:04:02.145Z,101293.59
2023-05-12T06:06:04.397Z,101293.38
2023-05-12T06:08:08.878Z,101300.56
2023-05-12T06:10:10.471Z,101292.06
2023-05-12T06:12:11.964Z,101297.34
2023-05-12T06:14:13.453Z,101292.91
2023-05-12T06:16:14.982Z,101302.88
2023-05-12T06:18:16.568Z,101294.84
2023-05-12T06:20:18.340Z,101287.63
2023-05-12T06:22:19.798Z,101294.47
2023-05-12T06:24:21.622Z,101295.28
2023-05-12T06:26:23.174Z,101297.22
2023-05-12T06:28:24.631Z,101300.56
2023-05-12T06:30:26.897Z,101296.75
2023-05-12T06:32:28.413Z,101294.84
2023-05-12T06:34:29.882Z,101300.94
2023-05-12T06:36:31.377Z,101298.19
2023-05-12T06:38:32.907Z,101297.97
2023-05-12T06:40:34.302Z,101302.03
2023-05-12T06:42:35.838Z,101301.19
2023-05-12T06:44:38.505Z,101307.78
2023-05-12T06:46:44.261Z,101303.31
2023-05-12T06:48:46.181Z,101307.16
2023-05-12T06:50:47.644Z,101314.13
2023-05-12T06:52:49.108Z,101303.94
2023-05-12T06:54:50.825Z,101308.16
2023-05-12T06:56:52.365Z,101303.28
2023-05-12T06:58:54.379Z,101304.94
2023-05-12T07:00:55.952Z,101305.78
2023-05-12T07:02:57.448Z,101307.69
2023-05-12T07:04:58.986Z,101305.16
2023-05-12T07:07:00.767Z,101307.91
2023-05-12T07:09:02.688Z,101303.47
2023-05-12T07:11:04.145Z,101300.13
2023-05-12T07:13:05.763Z,101307.56
2023-05-12T07:15:08.353Z,101301.81
2023-05-12T07:17:09.874Z,101305.63
2023-05-12T07:19:11.524Z,101301.41
2023-05-12T07:21:13.290Z,101300.81
2023-05-12T07:23:14.741Z,101304.63
2023-05-12T07:25:16.432Z,101298.50
2023-05-12T07:27:17.850Z,101297.44
2023-05-12T07:29:19.318Z,101302.31
2023-05-12T07:31:22.975Z,101293.69
2023-05-12T07:33:24.783Z,101293.91
2023-05-12T07:35:26.226Z,101300.13
2023-05-12T07:37:27.673Z,101293.38
2023-05-12T07:39:31.101Z,101297.41
2023-05-12T07:41:34.393Z,101290.47
2023-05-12T07:43:36.342Z,101291.75
2023-05-12T07:45:37.870Z,101294.13
2023-05-12T07:47:39.514Z,101289.09
2023-05-12T07:49:41.046Z,101292.28
2023-05-12T07:51:42.542Z,101287.19
2023-05-12T07:53:43.939Z,101293.38
2023-05-12T07:55:45.416Z,101290.22
2023-05-12T07:57:47.136Z,101293.44
2023-05-12T07:59:49.246Z,101298.78
2023-05-12T08:01:50.832Z,101295.41
2023-05-12T08:03:52.348Z,101290.59
2023-05-12T08:05:54.069Z,101289.09
2023-05-12T08:07:55.617Z,101297.44
2023-05-12T08:09:57.063Z,101286.44
2023-05-12T08:11:58.484Z,101282.72
2023-05-12T08:14:00.447Z,101296.19
2023-05-12T08:16:02.006Z,101300.03
2023-05-12T08:18:03.620Z,101292.44
2023-05-12T08:20:05.451Z,101297.53
2023-05-12T08:22:07.030Z,101289.72
2023-05-12T08:24:08.752Z,101303.94
2023-05-12T08:26:10.381Z,101305.44
2023-05-12T08:28:12.909Z,101304.00
2023-05-12T08:30:14.748Z,101307.41
2023-05-12T08:32:16.697Z,101302.75
2023-05-12T08:34:18.247Z,101302.59
2023-05-12T08:36:19.962Z,101310.44
2023-05-12T08:38:22.005Z,101310.88
2023-05-12T08:40:24.372Z,101315.97
2023-05-12T08:42:34.615Z,101309.25
2023-05-12T08:44:39.231Z,101314.75
2023-05-12T08:46:40.940Z,101321.75
2023-05-12T08:48:45.153Z,101323.69
2023-05-12T08:50:49.936Z,101318.22
2023-05-12T08:52:51.961Z,101307.03
2023-05-12T08:54:56.454Z,101312.97
2023-05-12T08:59:03.401Z,101314.88
2023-05-12T09:01:06.178Z,101318.50
2023-05-12T09:03:07.974Z,101314.28
2023-05-12T09:05:10.296Z,101316.41
2023-05-12T09:07:12.172Z,101321.91
2023-05-12T09:09:15.515Z,101320.38
2023-05-12T09:11:17.899Z,101321.66
2023-05-12T09:13:19.589Z,101330.34
2023-05-12T09:15:26.013Z,101325.06
2023-05-12T09:17:27.615Z,101327.81
2023-05-12T09:19:29.396Z,101328.84
2023-05-12T09:21:30.964Z,101326.53
2023-05-12T09:23:32.432Z,101325.72
2023-05-12T09:25:33.920Z,101322.34
2023-05-12T09:27:35.373Z,101338.19
2023-05-12T09:31:53.421Z,101329.75
2023-05-12T09:33:55.499Z,101329.97
2023-05-12T09:35:59.978Z,101337.59
2023-05-12T09:38:05.636Z,101326.81
2023-05-12T09:40:08.410Z,101329.34
2023-05-12T09:42:13.024Z,101329.56
2023-05-12T09:44:16.455Z,101328.09
2023-05-12T09:46:17.993Z,101329.78
2023-05-12T09:48:19.485Z,101328.75
2023-05-12T09:50:22.718Z,101320.50
2023-05-12T09:52:24.288Z,101326.22
2023-05-12T09:54:29.561Z,101331.50
2023-05-12T09:56:35.242Z,101324.28
2023-05-12T09:58:36.968Z,101332.31
2023-05-12T10:02:49.418Z,101318.81
2023-05-12T10:04:53.242Z,101329.78
2023-05-12T10:06:55.256Z,101327.25
2023-05-12T10:09:06.133Z,101321.75
2023-05-12T10:11:08.777Z,101323.91
2023-05-12T10:13:14.173Z,101322.19
2023-05-12T10:15:17.464Z,101329.81
2023-05-12T10:17:23.172Z,101321.78
2023-05-12T10:19:25.831Z,101318.63
2023-05-12T10:21:27.544Z,101322.66
2023-05-12T10:23:29.122Z,101322.00
2023-05-12T10:25:30.803Z,101320.34
2023-05-12T10:27:33.070Z,101320.56
2023-05-12T10:29:35.160Z,101313.34
2023-05-12T10:31:37.336Z,101324.13
2023-05-12T10:33:38.875Z,101323.28
2023-05-12T10:35:42.739Z,101321.81
2023-05-12T10:37:46.369Z,101311.66
2023-05-12T10:39:52.218Z,101312.09
2023-05-12T10:42:01.019Z,101313.34
2023-05-12T10:44:02.669Z,101311.47
2023-05-12T10:46:07.512Z,101312.50
2023-05-12T10:48:09.552Z,101312.72
2023-05-12T10:50:14.110Z,101315.47
2023-05-12T10:52:19.781Z,101316.53
2023-05-12T10:54:24.048Z,101314.66
2023-05-12T10:56:27.308Z,101314.19
2023-05-12T10:58:29.214Z,101307.66
2023-05-12T11:00:31.379Z,101311.44
2023-05-12T11:02:35.098Z,101314.81
2023-05-12T11:04:50.411Z,101313.56
2023-05-12T11:07:01.075Z,101311.22
2023-05-12T11:09:05.139Z,101312.72
2023-05-12T11:11:08.923Z,101310.38
2023-05-12T11:13:11.015Z,101307.03
2023-05-12T11:15:13.233Z,101306.16
2023-05-12T11:17:15.530Z,101306.16
2023-05-12T11:19:18.336Z,101304.28
2023-05-12T11:21:19.833Z,101300.66
2023-05-12T11:23:29.170Z,101298.78
2023-05-12T11:25:30.782Z,101297.09
2023-05-12T11:27:32.502Z,101299.41
2023-05-12T11:29:35.059Z,101297.28
2023-05-12T11:31:36.681Z,101290.53
2023-05-12T11:33:38.098Z,101294.75
2023-05-12T11:35:39.486Z,101284.63
2023-05-12T11:37:42.076Z,101291.59
2023-05-12T11:39:43.591Z,101290.97
2023-05-12T11:41:45.131Z,101289.47
2023-05-12T11:43:46.639Z,101280.22
2023-05-12T11:45:48.797Z,101285.25
2023-05-12T11:47:50.806Z,101286.97
2023-05-12T11:49:54.796Z,101274.72
2023-05-12T11:51:57.397Z,101280.63
2023-05-12T11:53:58.818Z,101282.31
2023-05-12T11:56:00.378Z,101277.03
2023-05-12T11:58:02.951Z,101275.97
2023-05-12T12:00:07.021Z,101278.31
2023-05-12T12:02:19.181Z,101275.56
2023-05-12T12:04:31.037Z,101280.44
2023-05-12T12:06:42.759Z,101282.72
2023-05-12T12:08:54.041Z,101277.03
2023-05-12T12:10:55.629Z,101278.50
2023-05-12T12:12:57.195Z,101284.78
2023-05-12T12:15:00.277Z,101286.25
2023-05-12T12:17:02.442Z,101287.31
2023-05-12T12:19:04.084Z,101289.41
2023-05-12T12:21:05.552Z,101289.22
2023-05-12T12:23:07.021Z,101286.91
2023-05-12T12:25:08.744Z,101285.63
2023-05-12T12:27:10.326Z,101290.88
2023-05-12T12:29:11.744Z,101289.19
2023-05-12T12:31:14.584Z,101294.66
2023-05-12T12:33:18.722Z,101287.47
2023-05-12T12:35:22.389Z,101287.06
2023-05-12T12:37:24.374Z,101296.31
2023-05-12T12:39:25.904Z,101294.19
2023-05-12T12:41:27.496Z,101287.44
2023-05-12T12:43:29.382Z,101296.72
2023-05-12T12:45:30.903Z,101292.50
2023-05-12T12:47:32.602Z,101292.28
2023-05-12T12:49:34.198Z,101296.47
2023-05-12T12:51:45.157Z,101296.66
2023-05-12T12:53:47.956Z,101297.72
2023-05-12T12:55:49.566Z,101300.25
2023-05-12T12:57:51.016Z,101297.28
2023-05-12T12:59:52.553Z,101290.78
2023-05-12T13:01:54.537Z,101290.97
2023-05-12T13:03:56.115Z,101291.19
2023-05-12T13:05:57.591Z,101291.41
2023-05-12T13:07:59.097Z,101282.97
2023-05-12T13:10:00.568Z,101286.34
2023-05-12T13:12:02.379Z,101277.50
2023-05-12T13:14:04.973Z,101279.63
2023-05-12T13:16:09.187Z,101283.03
2023-05-12T13:18:10.687Z,101280.06
2023-05-12T13:20:14.099Z,101286.38
2023-05-12T13:22:15.681Z,101279.88
2023-05-12T13:24:17.212Z,101280.06
2023-05-12T13:26:18.724Z,101287.44
2023-05-12T13:28:20.220Z,101290.16
2023-05-12T13:30:24.964Z,101286.38
2023-05-12T13:32:26.516Z,101285.56
2023-05-12T13:34:28.053Z,101282.16
2023-05-12T13:36:29.785Z,101285.75
2023-05-12T13:38:32.218Z,101287.44
2023-05-12T13:40:34.018Z,101294.81
2023-05-12T13:42:35.710Z,101289.34
2023-05-12T13:44:37.809Z,101281.13
2023-05-12T13:46:39.301Z,101276.47
2023-05-12T13:48:40.819Z,101276.06
2023-05-12T13:50:42.417Z,101278.59
2023-05-12T13:52:44.169Z,101270.56
2023-05-12T13:54:45.644Z,101275.00
2023-05-12T13:56:47.226Z,101277.13
2023-05-12T13:58:48.925Z,101278.16
2023-05-12T14:00:50.399Z,101284.28
2023-05-12T14:02:52.304Z,101281.13
2023-05-12T14:04:53.786Z,101279.03
2023-05-12T14:06:55.479Z,101279.66
2023-05-12T14:08:57.016Z,101275.00
2023-05-12T14:10:58.811Z,101274.19
2023-05-12T14:13:00.530Z,101268.69
2023-05-12T14:15:15.934Z,101281.38
2023-05-12T14:17:23.092Z,101284.09
2023-05-12T14:19:24.626Z,101280.50
2023-05-12T14:21:26.504Z,101276.09
2023-05-12T14:23:28.277Z,101272.47
2023-05-12T14:25:30.887Z,101275.44
2023-05-12T14:27:32.422Z,101274.81
2023-05-12T14:29:33.901Z,101284.28
2023-05-12T14:31:35.542Z,101287.84
2023-05-12T14:33:37.372Z,101282.78
2023-05-12T14:35:38.816Z,101285.94
2023-05-12T14:37:40.489Z,101282.34
2023-05-12T14:39:41.896Z,101282.56
2023-05-12T14:41:43.364Z,101287.00
2023-05-12T14:43:44.881Z,101287.84
2023-05-12T14:45:54.676Z,101290.38
2023-05-12T14:47:56.524Z,101302.38
2023-05-12T14:49:58.010Z,101292.03
2023-05-12T14:51:59.447Z,101289.06
2023-05-12T14:54:01.048Z,101292.28
2023-05-12T14:56:02.594Z,101291.41
2023-05-12T14:58:04.071Z,101291.88
2023-05-12T15:00:07.002Z,101287.00
2023-05-12T15:02:08.725Z,101297.13
2023-05-12T15:04:10.346Z,101292.69
2023-05-12T15:06:12.059Z,101289.31
2023-05-12T15:08:13.545Z,101280.91
2023-05-12T15:10:15.060Z,101279.00
2023-05-12T15:12:17.669Z,101287.22
2023-05-12T15:14:19.746Z,101283.44
2023-05-12T15:16:21.241Z,101279.41
2023-05-12T15:18:22.809Z,101278.38
2023-05-12T15:20:24.297Z,101276.47
2023-05-12T15:22:25.879Z,101278.38
2023-05-12T15:24:27.433Z,101273.72
2023-05-12T15:26:33.770Z,101273.50
2023-05-12T15:28:36.759Z,101273.09
2023-05-12T15:30:38.314Z,101272.88
2023-05-12T15:32:41.150Z,101275.63
2023-05-12T15:34:42.690Z,101270.16
2023-05-12T15:36:45.597Z,101270.16
2023-05-12T15:38:47.231Z,101269.31
2023-05-12T15:40:49.080Z,101270.78
2023-05-12T15:42:50.509Z,101264.25
2023-05-12T15:44:52.628Z,101270.16
2023-05-12T15:46:54.392Z,101266.38
2023-05-12T15:48:55.860Z,101269.94
2023-05-12T15:50:57.404Z,101268.50
2023-05-12T15:52:59.082Z,101271.22
2023-05-12T15:55:01.008Z,101269.31
2023-05-12T15:57:02.582Z,101258.56
2023-05-12T15:59:05.232Z,101265.94
2023-05-12T16:01:06.789Z,101270.56
2023-05-12T16:03:09.090Z,101267.81
2023-05-12T16:05:10.708Z,101267.00
2023-05-12T16:07:12.176Z,101259.81
2023-05-12T16:09:13.743Z,101262.34
2023-05-12T16:11:15.341Z,101255.81
2023-05-12T16:13:16.798Z,101259.41
2023-05-12T16:15:19.026Z,101253.72
2023-05-12T16:17:22.148Z,101257.09
2023-05-12T16:19:24.417Z,101259.88
2023-05-12T16:21:26.029Z,101260.91
2023-05-12T16:23:27.747Z,101261.16
2023-05-12T16:25:30.351Z,101260.94
2023-05-12T16:27:33.607Z,101258.66
2023-05-12T16:29:35.094Z,101256.75
2023-05-12T16:31:36.651Z,101256.34
2023-05-12T16:33:38.231Z,101262.06
2023-05-12T16:35:39.737Z,101258.69
2023-05-12T16:37:41.483Z,101260.78
2023-05-12T16:39:43.049Z,101254.66
2023-05-12T16:41:44.942Z,101265.63
2023-05-12T16:43:46.493Z,101256.97
2023-05-12T16:45:56.787Z,101260.13
2023-05-12T16:47:58.422Z,101264.34
2023-05-12T16:49:59.931Z,101269.63
2023-05-12T16:52:01.715Z,101264.34
2023-05-12T16:54:03.316Z,101271.31
2023-05-12T16:56:04.957Z,101266.66
2023-05-12T16:58:07.294Z,101280.19
2023-05-12T17:00:09.653Z,101263.28
2023-05-12T17:02:11.322Z,101267.28
2023-05-12T17:04:12.926Z,101259.06
2023-05-12T17:06:14.463Z,101258.84
2023-05-12T17:08:18.276Z,101267.47
2023-05-12T17:10:20.359Z,101266.22
2023-05-12T17:12:22.239Z,101262.81
2023-05-12T17:14:23.657Z,101267.66
2023-05-12T17:16:25.107Z,101259.81
2023-05-12T17:18:26.675Z,101271.44
2023-05-12T17:20:28.616Z,101271.22
2023-05-12T17:22:32.047Z,101269.50
2023-05-12T17:24:33.506Z,101268.84
2023-05-12T17:26:35.259Z,101266.09
2023-05-12T17:28:36.805Z,101274.53
2023-05-12T17:30:38.347Z,101266.69
2023-05-12T17:32:39.872Z,101267.34
2023-05-12T17:34:41.690Z,101268.59
2023-05-12T17:36:43.392Z,101270.69
2023-05-12T17:38:44.934Z,101275.53
2023-05-12T17:40:46.740Z,101269.19
2023-05-12T17:42:49.869Z,101268.75
2023-05-12T17:44:51.486Z,101274.25
2023-05-12T17:46:53.101Z,101269.63
2023-05-12T17:48:54.629Z,101267.47
2023-05-12T17:50:56.423Z,101280.16
2023-05-12T17:52:58.228Z,101276.56
2023-05-12T17:54:59.747Z,101271.69
2023-05-12T17:57:02.081Z,101278.66
2023-05-12T17:59:04.848Z,101282.88
2023-05-12T18:01:06.545Z,101288.97
2023-05-12T18:03:08.446Z,101282.59
2023-05-12T18:05:10.198Z,101280.03
2023-05-12T18:07:11.627Z,101280.44
2023-05-12T18:09:13.685Z,101277.03
2023-05-12T18:11:15.139Z,101284.81
2023-05-12T18:13:16.860Z,101289.28
2023-05-12T18:15:19.920Z,101294.09
2023-05-12T18:17:21.850Z,101302.13
2023-05-12T18:19:23.905Z,101297.84
2023-05-12T18:21:25.808Z,101300.81
2023-05-12T18:23:27.420Z,101286.03
2023-05-12T18:25:28.933Z,101303.50
2023-05-12T18:27:30.469Z,101307.50
2023-05-12T18:29:31.913Z,101309.19
2023-05-12T18:31:34.344Z,101314.47
2023-05-12T18:33:35.980Z,101308.09
2023-05-12T18:35:37.585Z,101313.38
2023-05-12T18:37:39.046Z,101322.72
2023-05-12T18:39:40.748Z,101320.59
2023-05-12T18:41:42.225Z,101326.47
2023-05-12T18:43:44.757Z,101333.22
2023-05-12T18:45:46.489Z,101334.69
2023-05-12T18:47:48.107Z,101330.41
2023-05-12T18:49:49.747Z,101343.72
2023-05-12T18:51:51.352Z,101343.53
2023-05-12T18:53:52.900Z,101337.16
2023-05-12T18:55:54.588Z,101349.88
2023-05-12T18:57:56.346Z,101350.69
2023-05-12T18:59:57.790Z,101342.22
2023-05-12T19:01:59.281Z,101344.97
2023-05-12T19:04:00.840Z,101342.84
2023-05-12T19:06:02.348Z,101357.84
2023-05-12T19:08:04.136Z,101353.19
2023-05-12T19:10:06.119Z,101353.56
2023-05-12T19:12:10.672Z,101358.63
2023-05-12T19:14:12.960Z,101357.56
2023-05-12T19:16:14.414Z,101360.78
2023-05-12T19:18:17.099Z,101359.09
2023-05-12T19:20:18.558Z,101371.16
2023-05-12T19:22:20.734Z,101372.84
2023-05-12T19:24:24.395Z,101380.88
2023-05-12T19:26:28.050Z,101385.78
2023-05-12T19:28:29.605Z,101388.53
2023-05-12T19:30:31.066Z,101383.88
2023-05-12T19:32:33.087Z,101378.97
2023-05-12T19:34:34.712Z,101391.44
2023-05-12T19:36:36.134Z,101396.72
2023-05-12T19:38:37.811Z,101393.97
2023-05-12T19:40:39.478Z,101398.66
2023-05-12T19:42:42.243Z,101398.88
2023-05-12T19:44:43.933Z,101396.56
2023-05-12T19:46:46.897Z,101406.94
2023-05-12T19:48:48.467Z,101404.19
2023-05-12T19:50:50.274Z,101402.31
2023-05-12T19:52:51.880Z,101403.13
2023-05-12T19:54:53.534Z,101405.66
2023-05-12T19:56:55.145Z,101404.38
2023-05-12T19:58:56.646Z,101396.97
2023-05-12T20:00:58.303Z,101406.06
2023-05-12T20:02:59.923Z,101405.22
2023-05-12T20:05:01.661Z,101414.31
2023-05-12T20:07:03.476Z,101406.28
2023-05-12T20:09:04.914Z,101418.16
2023-05-12T20:11:07.221Z,101417.53
2023-05-12T20:13:08.894Z,101420.50
2023-05-12T20:15:11.381Z,101418.84
2023-05-12T20:17:12.974Z,101412.25
2023-05-12T20:19:14.624Z,101421.97
2023-05-12T20:21:16.550Z,101425.09
2023-05-12T20:23:18.288Z,101424.88
2023-05-12T20:25:20.107Z,101432.09
2023-05-12T20:27:22.018Z,101427.47
2023-05-12T20:29:25.431Z,101435.06
2023-05-12T20:31:27.535Z,101437.00
2023-05-12T20:33:29.061Z,101440.81
2023-05-12T20:35:30.605Z,101441.84
2023-05-12T20:37:32.157Z,101437.22
2023-05-12T20:39:33.825Z,101432.75
2023-05-12T20:41:35.614Z,101433.59
2023-05-12T20:43:37.314Z,101438.88
2023-05-12T20:45:38.813Z,101433.00
2023-05-12T20:47:40.775Z,101436.34
2023-05-12T20:49:42.669Z,101441.63
2023-05-12T20:51:44.124Z,101446.91
2023-05-12T20:53:45.698Z,101446.09
2023-05-12T20:55:47.089Z,101444.63
2023-05-12T20:57:48.520Z,101436.56
2023-05-12T20:59:52.506Z,101445.03
2023-05-12T21:01:54.012Z,101438.66
2023-05-12T21:03:55.598Z,101437.81
2023-05-12T21:05:57.181Z,101443.09
2023-05-12T21:07:58.956Z,101440.81
2023-05-12T21:10:00.792Z,101442.25
2023-05-12T21:12:02.548Z,101445.63
2023-05-12T21:14:04.968Z,101449.00
2023-05-12T21:16:06.483Z,101449.00
2023-05-12T21:18:09.015Z,101447.31
2023-05-12T21:20:11.565Z,101448.38
2023-05-12T21:22:13.070Z,101443.09
2023-05-12T21:24:14.542Z,101445.84
2023-05-12T21:26:17.763Z,101410.78
2023-05-12T21:28:19.379Z,101439.72
2023-05-12T21:30:21.548Z,101434.84
2023-05-12T21:32:23.237Z,101440.72
2023-05-12T21:34:24.828Z,101439.22
2023-05-12T21:36:27.048Z,101436.47
2023-05-12T21:38:30.586Z,101434.31
2023-05-12T21:40:32.024Z,101432.63
2023-05-12T21:42:33.692Z,101439.00
2023-05-12T21:44:35.451Z,101429.25
2023-05-12T21:46:37.332Z,101441.34
2023-05-12T21:48:38.827Z,101431.41
2023-05-12T21:50:40.900Z,101431.63
2023-05-12T21:52:42.305Z,101436.06
2023-05-12T21:54:43.926Z,101435.00
2023-05-12T21:56:45.490Z,101438.13
2023-05-12T21:58:47.281Z,101449.34
2023-05-12T22:00:49.622Z,101446.38
2023-05-12T22:02:51.793Z,101441.69
2023-05-12T22:04:53.369Z,101444.44
2023-05-12T22:06:54.826Z,101450.81
2023-05-12T22:08:56.571Z,101451.00
2023-05-12T22:10:58.056Z,101446.81
2023-05-12T22:12:59.694Z,101445.34
2023-05-12T22:15:01.668Z,101427.41
2023-05-12T22:17:03.357Z,101441.53
2023-05-12T22:19:05.028Z,101445.72
2023-05-12T22:21:06.960Z,101444.44
2023-05-12T22:23:08.422Z,101453.13
2023-05-12T22:25:09.998Z,101449.06
2023-05-12T22:27:11.587Z,101446.59
2023-05-12T22:29:13.093Z,101451.81
2023-05-12T22:31:14.986Z,101449.28
2023-05-12T22:33:16.467Z,101453.34
2023-05-12T22:35:17.981Z,101453.56
2023-05-12T22:37:19.433Z,101455.69
2023-05-12T22:39:20.942Z,101451.88
2023-05-12T22:41:22.353Z,101456.31
2023-05-12T22:43:24.175Z,101454.19
2023-05-12T22:45:25.922Z,101440.44
2023-05-12T22:47:27.461Z,101448.81
2023-05-12T22:49:28.941Z,101453.06
2023-05-12T22:51:31.689Z,101449.25
2023-05-12T22:53:35.730Z,101457.50
2023-05-12T22:55:37.273Z,101455.19
2023-05-12T22:57:40.764Z,101448.81
2023-05-12T22:59:42.259Z,101448.44
2023-05-12T23:01:44.542Z,101448.06
2023-05-12T23:03:46.278Z,101449.97
2023-05-12T23:05:47.718Z,101451.00
2023-05-12T23:07:49.339Z,101449.34
2023-05-12T23:09:50.780Z,101453.38
2023-05-12T23:11:52.176Z,101449.78
2023-05-12T23:13:53.740Z,101449.38
2023-05-12T23:15:55.406Z,101445.19
2023-05-12T23:17:56.963Z,101446.47
2023-05-12T23:19:58.489Z,101442.25